2TS2 weather

Shofner Farms Airport
Harlingen, Texas, United States

Public forecast

Using degrees Fahrenheit for public forecast. Weather courtesy of forecast.io.

Closest aviation weather report (METAR) to Shofner Farms Airport

Closest report is Valley International Airport, 5.6 nm (10.3 km) NE. Retrieved 2019/10/18 21:52 UTC (47 minutes ago):

KHRL 182152Z 10011KT 10SM FEW041 30/21 A2971 RMK AO2 SLP062 T03000211

Closest aviation forecast (TAF) to Shofner Farms Airport

Closest forecast is Valley International Airport, 5.6 nm (10.3 km) NE. Retrieved 2019/10/18 18:27 UTC (4 hours ago):

TAF KHRL 181724Z 1818/1918 05005KT P6SM FEW029 SCT250 TEMPO 1909/1912 4SM BR SCT015 FM191500 17008KT P6SM FEW060 SCT090